Time;durP1;ratioP1;P1;durP2;ratioP2;P2;SDS_P1;SDS_P2;PMS_P1;PMS_P2;Temp;Humidity;BMP_temperature;BMP_pressure;BME280_temperature;BME280_humidity;BME280_pressure;Samples;Min_cycle;Max_cycle;Signal;HPM_P1;HPM_P2
2022/04/18 00:00:32;;;;;;;12.30;6.90;;;;;;;16.88;33.99;102058.25;5050608;28;20036;-73
2022/04/18 00:02:59;;;;;;;11.00;6.43;;;;;;;17.55;32.64;102056.19;5031689;28;20040;-73
2022/04/18 00:05:24;;;;;;;11.30;7.27;;;;;;;17.86;31.77;102049.38;5049319;28;20060;-73
2022/04/18 00:07:49;;;;;;;14.10;7.37;;;;;;;18.12;31.12;102052.38;5015715;28;20037;-72
2022/04/18 00:10:15;;;;;;;12.73;7.73;;;;;;;17.68;32.36;102048.88;5048845;28;20032;-73
2022/04/18 00:12:40;;;;;;;14.03;7.47;;;;;;;18.00;31.17;102057.06;5048515;28;20025;-73
2022/04/18 00:15:06;;;;;;;14.00;7.53;;;;;;;17.39;32.54;102047.69;5049179;28;20111;-73
2022/04/18 00:17:31;;;;;;;14.50;7.80;;;;;;;17.47;32.34;102052.81;5048278;28;20059;-72
2022/04/18 00:19:57;;;;;;;11.47;6.63;;;;;;;17.57;32.75;102050.84;5048995;28;20049;-73
2022/04/18 00:22:23;;;;;;;11.53;7.20;;;;;;;17.21;32.85;102053.31;5050163;28;20111;-73
2022/04/18 00:24:49;;;;;;;15.13;8.03;;;;;;;17.01;32.87;102044.00;5049149;28;20037;-73
2022/04/18 00:27:14;;;;;;;15.77;7.50;;;;;;;17.64;32.72;102044.56;5048945;28;20087;-73
2022/04/18 00:29:40;;;;;;;16.33;7.83;;;;;;;17.97;32.47;102048.28;5048747;28;20040;-73
2022/04/18 00:32:06;;;;;;;13.67;7.80;;;;;;;17.71;31.86;102051.47;5049721;28;20029;-73
2022/04/18 00:34:32;;;;;;;11.53;7.23;;;;;;;17.63;33.24;102046.31;5048887;28;20116;-72
2022/04/18 00:36:57;;;;;;;12.73;7.90;;;;;;;17.24;32.56;102045.31;5050443;28;20025;-73
2022/04/18 00:39:22;;;;;;;16.10;8.10;;;;;;;17.25;32.72;102047.94;5052134;28;20498;-73
2022/04/18 00:41:48;;;;;;;17.13;7.97;;;;;;;16.87;33.52;102046.84;5052315;28;20488;-73
2022/04/18 00:44:13;;;;;;;15.53;8.30;;;;;;;17.15;32.81;102050.81;5054168;28;20032;-72
2022/04/18 00:46:39;;;;;;;15.07;7.90;;;;;;;17.12;33.15;102047.28;5051367;28;20036;-73
2022/04/18 00:49:04;;;;;;;14.87;8.07;;;;;;;17.64;32.71;102044.56;5052731;28;20033;-72
2022/04/18 00:51:29;;;;;;;18.23;8.40;;;;;;;17.40;32.89;102036.19;5053634;28;20036;-72
2022/04/18 00:53:56;;;;;;;13.57;7.93;;;;;;;17.10;33.42;102046.47;5051855;28;20040;-73
2022/04/18 00:56:23;;;;;;;11.33;7.77;;;;;;;16.87;34.69;102045.94;5052240;28;20028;-72
2022/04/18 00:58:49;;;;;;;14.40;8.50;;;;;;;16.52;35.10;102044.78;5052212;28;20072;-72
2022/04/18 01:01:15;;;;;;;11.73;7.80;;;;;;;16.59;35.05;102046.41;5051826;28;20128;-73
2022/04/18 01:03:44;;;;;;;16.40;9.43;;;;;;;17.08;34.18;102045.63;5051928;28;20443;-73
2022/04/18 01:06:11;;;;;;;14.13;8.23;;;;;;;17.07;33.97;102049.16;5051398;28;20120;-72
2022/04/18 01:08:36;;;;;;;14.77;8.67;;;;;;;16.86;34.38;102045.09;5051918;28;20037;-73
2022/04/18 01:11:05;;;;;;;14.87;8.23;;;;;;;16.79;34.42;102040.81;5052337;28;20032;-72
2022/04/18 01:13:43;;;;;;;15.13;7.80;;;;;;;16.37;34.92;102036.19;5051155;28;20040;-72
2022/04/18 01:16:09;;;;;;;13.00;7.93;;;;;;;16.66;34.92;102037.50;5052017;28;20495;-72
2022/04/18 01:18:35;;;;;;;12.23;7.40;;;;;;;17.08;33.91;102035.03;5051804;28;20063;-72
2022/04/18 01:21:01;;;;;;;11.60;7.57;;;;;;;17.09;33.54;102031.50;5051158;28;20048;-72
2022/04/18 01:23:27;;;;;;;14.10;8.67;;;;;;;16.96;33.73;102032.63;5051993;28;20025;-72
2022/04/18 01:31:20;;;;;;;12.67;8.47;;;;;;;16.26;34.96;102028.41;5053305;28;20047;-72
2022/04/18 01:33:45;;;;;;;11.63;8.30;;;;;;;16.34;35.01;102028.31;5051379;28;20392;-72
2022/04/18 01:36:11;;;;;;;19.43;8.00;;;;;;;16.24;34.92;102037.28;5052250;28;20056;-72
2022/04/18 01:38:36;;;;;;;12.43;7.60;;;;;;;16.47;35.44;102031.63;5051226;28;20027;-72
2022/04/18 01:41:02;;;;;;;12.50;8.33;;;;;;;15.70;36.33;102027.41;5051672;28;20021;-73
2022/04/18 01:43:27;;;;;;;17.90;7.67;;;;;;;15.82;36.32;102031.69;5050706;28;20397;-72
2022/04/18 01:45:52;;;;;;;13.10;8.23;;;;;;;16.11;35.72;102032.19;5051988;28;20035;-72
2022/04/18 01:48:18;;;;;;;12.23;7.70;;;;;;;16.62;34.47;102025.25;5050340;28;20032;-72
2022/04/18 01:50:43;;;;;;;16.73;8.77;;;;;;;16.61;34.00;102028.78;5050933;28;20077;-72
2022/04/18 01:53:09;;;;;;;11.50;7.60;;;;;;;16.15;34.74;102030.34;5051422;28;20124;-72
2022/04/18 01:55:35;;;;;;;12.57;7.87;;;;;;;16.22;34.84;102036.41;5050180;28;20378;-72
2022/04/18 01:58:00;;;;;;;14.67;7.80;;;;;;;15.93;35.47;102025.38;5051459;28;20025;-72
2022/04/18 02:00:26;;;;;;;13.67;8.07;;;;;;;16.40;34.40;102024.72;5051262;28;20086;-72
2022/04/18 02:02:52;;;;;;;12.40;7.90;;;;;;;15.72;35.58;102020.38;5051360;28;20036;-72
2022/04/18 02:05:18;;;;;;;11.80;7.70;;;;;;;15.94;34.99;102026.25;5052319;28;20036;-72
2022/04/18 02:07:43;;;;;;;13.70;7.43;;;;;;;16.13;34.80;102018.06;5050740;28;20043;-72
2022/04/18 02:10:09;;;;;;;14.33;7.43;;;;;;;16.21;34.85;102019.72;5050392;28;20052;-72
2022/04/18 02:12:34;;;;;;;12.67;7.77;;;;;;;14.33;37.66;102019.91;5034240;28;20095;-72
2022/04/18 02:14:59;;;;;;;12.17;7.50;;;;;;;15.30;36.37;102022.59;5050753;28;20477;-72
2022/04/18 02:17:25;;;;;;;12.37;7.50;;;;;;;15.14;36.54;102027.16;5050228;28;20072;-72
2022/04/18 02:19:50;;;;;;;10.27;6.70;;;;;;;16.00;35.00;102018.25;5050204;28;20399;-72
2022/04/18 02:22:15;;;;;;;13.30;7.27;;;;;;;16.15;35.08;102018.94;5050668;28;20045;-72
2022/04/18 02:24:41;;;;;;;12.77;7.17;;;;;;;15.56;35.76;102020.53;5049537;28;20039;-72
2022/04/18 02:27:08;;;;;;;16.30;7.47;;;;;;;14.93;36.96;102018.56;5050733;28;20039;-71
2022/04/18 02:29:33;;;;;;;13.63;7.27;;;;;;;15.33;36.48;102007.66;5051760;28;20537;-71
2022/04/18 02:34:43;;;;;;;13.43;7.13;;;;;;;14.90;36.93;102008.06;5050678;28;20568;-72
2022/04/18 02:37:10;;;;;;;10.27;6.80;;;;;;;15.73;35.44;102016.81;5051842;28;20115;-72
2022/04/18 02:39:38;;;;;;;10.17;6.23;;;;;;;14.91;36.52;102008.06;5050946;28;20029;-72
2022/04/18 02:42:04;;;;;;;12.60;7.30;;;;;;;15.05;36.44;102012.31;5050604;28;20033;-72
2022/04/18 02:44:29;;;;;;;11.00;6.13;;;;;;;15.05;36.54;102015.81;5049760;28;20443;-72
2022/04/18 02:46:55;;;;;;;13.00;6.73;;;;;;;14.61;37.15;102001.28;5049546;28;20029;-72
2022/04/18 02:49:20;;;;;;;10.77;6.40;;;;;;;14.41;37.67;102007.56;5050447;28;20391;-73
2022/04/18 02:51:46;;;;;;;8.40;5.47;;;;;;;15.42;35.89;102007.53;5048925;28;20032;-73
2022/04/18 02:54:11;;;;;;;9.77;5.83;;;;;;;15.70;35.22;102001.94;5051635;28;20028;-72
2022/04/18 02:56:36;;;;;;;9.77;5.80;;;;;;;15.24;36.26;101991.94;5050941;28;20481;-72
2022/04/18 02:59:02;;;;;;;11.63;6.00;;;;;;;14.69;37.17;101999.50;5049324;28;20025;-72
2022/04/18 03:01:27;;;;;;;7.90;5.50;;;;;;;15.33;35.90;101998.84;5049316;28;20021;-72
2022/04/18 03:03:52;;;;;;;9.70;5.63;;;;;;;15.50;35.46;101996.91;5049627;28;20128;-72
2022/04/18 03:06:18;;;;;;;11.20;5.17;;;;;;;15.55;35.20;101996.84;5049322;28;20033;-72
2022/04/18 03:08:43;;;;;;;8.37;5.47;;;;;;;14.74;36.25;101995.06;5049672;28;20484;-72
2022/04/18 03:11:10;;;;;;;10.30;5.40;;;;;;;15.18;35.83;101992.00;5051285;28;20025;-72
2022/04/18 03:13:37;;;;;;;10.77;5.40;;;;;;;15.04;36.18;101995.66;5050213;28;20380;-72
2022/04/18 03:16:04;;;;;;;7.60;5.10;;;;;;;15.49;35.09;101995.16;5049722;28;20025;-72
2022/04/18 03:18:30;;;;;;;8.23;5.13;;;;;;;15.60;35.08;101995.03;5049558;28;20035;-72
2022/04/18 03:20:55;;;;;;;8.23;5.20;;;;;;;15.25;35.27;101993.69;5048836;28;20049;-73
2022/04/18 03:23:20;;;;;;;8.00;4.70;;;;;;;14.40;36.54;101987.41;5051154;28;20108;-72
2022/04/18 03:25:46;;;;;;;10.17;5.47;;;;;;;14.51;36.84;101986.47;5050535;28;20031;-72
2022/04/18 03:28:11;;;;;;;10.97;5.60;;;;;;;14.70;36.24;101985.47;5048868;28;20029;-72
2022/04/18 03:30:37;;;;;;;7.37;5.53;;;;;;;15.55;35.29;101991.56;5049102;28;20035;-72
2022/04/18 03:33:03;;;;;;;10.17;5.43;;;;;;;14.86;35.51;101991.44;5051167;28;20028;-72
2022/04/18 03:35:28;;;;;;;7.10;5.37;;;;;;;15.21;35.16;101987.56;5048949;28;20412;-72
2022/04/18 03:40:37;;;;;;;8.80;5.13;;;;;;;14.62;36.21;101987.25;5050677;28;20266;-72
2022/04/18 03:43:03;;;;;;;9.00;5.80;;;;;;;14.83;36.32;101990.59;5050179;28;20153;-72
2022/04/18 03:45:29;;;;;;;9.70;4.87;;;;;;;14.41;36.78;101978.66;5049282;28;20040;-72
2022/04/18 03:47:54;;;;;;;8.67;5.23;;;;;;;14.50;36.89;101987.34;5049967;28;20348;-72
2022/04/18 03:50:20;;;;;;;7.83;5.17;;;;;;;13.86;37.94;101994.75;5049653;28;20126;-72
2022/04/18 03:52:45;;;;;;;7.97;5.23;;;;;;;13.98;38.07;101991.22;5049140;28;20114;-72
2022/04/18 03:55:11;;;;;;;8.10;5.23;;;;;;;14.66;36.68;101981.09;5048572;28;20036;-72
2022/04/18 03:57:37;;;;;;;9.07;4.37;;;;;;;14.72;36.33;101983.66;5049108;28;20043;-72
2022/04/18 04:00:04;;;;;;;8.63;5.00;;;;;;;14.66;36.55;101983.75;5049458;28;20025;-72
2022/04/18 04:02:30;;;;;;;8.13;5.40;;;;;;;13.90;38.04;101980.72;5047975;28;20029;-72
2022/04/18 04:04:56;;;;;;;8.57;5.23;;;;;;;13.48;38.54;101983.56;5050317;28;20469;-72
2022/04/18 04:07:21;;;;;;;11.47;5.30;;;;;;;13.72;38.77;101979.97;5049426;28;20033;-72
2022/04/18 04:09:47;;;;;;;7.60;4.90;;;;;;;14.17;37.54;101974.44;5048085;28;20025;-72
2022/04/18 04:12:12;;;;;;;7.37;4.80;;;;;;;14.70;36.33;101969.66;5052790;28;20035;-72
2022/04/18 04:14:38;;;;;;;6.60;4.37;;;;;;;13.83;37.53;101966.75;5054348;28;20108;-72
2022/04/18 04:17:03;;;;;;;6.83;4.40;;;;;;;14.27;36.94;101959.44;5052456;28;20128;-72
2022/04/18 04:19:32;;;;;;;9.20;5.13;;;;;;;13.96;37.87;101964.03;5036868;28;20075;-72
2022/04/18 04:21:57;;;;;;;6.93;5.07;;;;;;;14.05;37.14;101959.63;5052652;28;20056;-72
2022/04/18 04:24:22;;;;;;;7.03;4.23;;;;;;;14.23;37.03;101955.09;5035511;28;20033;-72
2022/04/18 04:26:49;;;;;;;5.50;4.10;;;;;;;13.63;37.76;101956.34;5052700;28;20075;-71
2022/04/18 04:29:15;;;;;;;5.73;4.43;;;;;;;13.49;38.26;101953.78;5053246;28;20040;-72
2022/04/18 04:31:40;;;;;;;7.73;4.43;;;;;;;13.74;37.95;101957.16;5051671;28;20033;-72
2022/04/18 04:34:06;;;;;;;7.80;4.17;;;;;;;13.61;37.40;101960.72;5053011;28;20031;-72
2022/04/18 04:36:31;;;;;;;5.60;4.23;;;;;;;14.04;36.79;101951.72;5052777;28;20025;-72
2022/04/18 04:38:56;;;;;;;8.57;4.10;;;;;;;15.00;34.73;101957.09;5051887;28;20063;-72
2022/04/18 04:41:22;;;;;;;5.33;3.70;;;;;;;15.14;34.79;101958.69;5052867;28;20465;-72
2022/04/18 04:43:47;;;;;;;6.50;3.80;;;;;;;14.32;35.64;101965.56;5052308;28;20030;-72
2022/04/18 04:46:12;;;;;;;8.20;3.70;;;;;;;14.22;36.69;101977.91;5051990;28;20505;-72
2022/04/18 04:48:38;;;;;;;4.97;3.53;;;;;;;14.72;36.04;101973.13;5053671;28;20032;-72
2022/04/18 04:51:03;;;;;;;5.00;3.80;;;;;;;14.84;35.67;101987.09;5052921;28;20067;-71
2022/04/18 04:53:28;;;;;;;6.33;3.77;;;;;;;15.24;35.47;101997.22;5052396;28;20025;-72
2022/04/18 04:55:54;;;;;;;5.20;3.70;;;;;;;15.40;35.85;101996.16;5051869;28;20028;-72
2022/04/18 04:58:19;;;;;;;5.90;4.00;;;;;;;15.39;35.36;101983.84;5052044;28;20119;-72
2022/04/18 05:00:44;;;;;;;6.20;4.00;;;;;;;15.62;35.04;101988.00;5051949;28;20028;-71
2022/04/18 05:03:10;;;;;;;6.93;3.80;;;;;;;15.21;36.73;101987.56;5052228;28;20033;-72
2022/04/18 05:05:35;;;;;;;6.47;3.83;;;;;;;15.59;35.87;101977.47;5051206;28;20025;-72
2022/04/18 05:08:01;;;;;;;5.33;3.80;;;;;;;15.14;35.91;101974.47;5051841;28;20025;-72
2022/04/18 05:10:27;;;;;;;5.77;3.87;;;;;;;15.57;35.98;101979.25;5052204;28;20029;-72
2022/04/18 05:12:52;;;;;;;5.57;3.97;;;;;;;15.10;35.88;101979.78;5052250;28;20029;-72
2022/04/18 05:15:19;;;;;;;5.67;4.10;;;;;;;15.25;35.47;101967.34;5052152;28;20036;-72
2022/04/18 05:17:44;;;;;;;6.17;3.80;;;;;;;14.20;36.84;101970.91;5051383;28;20044;-72
2022/04/18 05:20:10;;;;;;;5.80;3.70;;;;;;;15.57;34.67;101974.84;5050817;28;20071;-72
2022/04/18 05:22:35;;;;;;;4.60;3.30;;;;;;;14.40;36.41;101971.63;5050678;28;20105;-72
2022/04/18 05:25:01;;;;;;;6.30;3.57;;;;;;;14.41;36.84;101968.13;5051606;28;20028;-72
2022/04/18 05:27:26;;;;;;;4.20;3.23;;;;;;;14.71;36.41;101966.16;5051209;28;20035;-72
2022/04/18 05:29:52;;;;;;;7.13;3.90;;;;;;;14.48;36.54;101963.69;5052489;28;20120;-72
2022/04/18 05:32:17;;;;;;;9.50;3.73;;;;;;;14.93;36.00;101971.19;5053060;28;20083;-72
2022/04/18 05:34:43;;;;;;;4.00;3.17;;;;;;;14.35;37.03;101962.91;5050484;28;20036;-72
2022/04/18 05:37:09;;;;;;;5.80;4.20;;;;;;;14.89;36.26;101969.47;5051496;28;20037;-72
2022/04/18 05:39:34;;;;;;;5.97;3.40;;;;;;;14.65;36.52;101966.19;5051244;28;20028;-72
2022/04/18 05:42:00;;;;;;;5.17;2.83;;;;;;;14.32;36.58;101967.31;5050856;28;20370;-71
2022/04/18 05:44:26;;;;;;;6.80;3.93;;;;;;;15.02;36.11;101963.19;5052875;28;20032;-72
2022/04/18 05:46:51;;;;;;;5.50;3.90;;;;;;;14.90;36.58;101972.09;5051109;28;20465;-72
2022/04/18 05:49:17;;;;;;;3.77;3.20;;;;;;;15.90;34.75;101969.19;5050653;28;20028;-72
2022/04/18 05:51:43;;;;;;;6.80;3.73;;;;;;;16.33;33.88;101959.75;5051004;28;20536;-72
2022/04/18 05:54:09;;;;;;;6.47;4.00;;;;;;;15.33;36.07;101973.41;5051426;28;20033;-72
2022/04/18 05:56:34;;;;;;;8.53;4.10;;;;;;;16.29;34.25;101974.75;5050611;28;20025;-72
2022/04/18 05:59:00;;;;;;;4.20;3.50;;;;;;;15.92;34.97;101970.03;5050914;28;20036;-72
2022/04/18 06:01:28;;;;;;;5.53;3.50;;;;;;;16.35;34.39;101973.78;5050996;28;20033;-72
2022/04/18 06:03:54;;;;;;;7.17;3.80;;;;;;;15.39;36.38;101975.97;5050213;28;20033;-72
2022/04/18 06:06:20;;;;;;;4.90;3.77;;;;;;;15.16;36.66;101983.25;5051111;28;20473;-72
2022/04/18 06:08:45;;;;;;;5.83;3.40;;;;;;;15.86;35.57;101975.41;5049834;28;20021;-72
2022/04/18 06:11:10;;;;;;;4.60;3.40;;;;;;;15.57;36.21;101979.25;5051258;28;20388;-73
2022/04/18 06:13:36;;;;;;;5.10;3.93;;;;;;;15.75;35.64;101979.00;5050288;28;20477;-72
2022/04/18 06:16:01;;;;;;;5.87;3.50;;;;;;;15.64;36.01;101980.91;5050225;28;20166;-72
2022/04/18 06:18:27;;;;;;;4.97;3.63;;;;;;;16.16;35.71;101967.94;5034192;28;20170;-72
2022/04/18 06:20:53;;;;;;;7.67;3.40;;;;;;;16.56;34.30;101967.28;5049916;28;20512;-72
2022/04/18 06:23:18;;;;;;;4.90;3.27;;;;;;;16.91;34.45;101979.00;5049907;28;20035;-72
2022/04/18 06:25:44;;;;;;;5.50;3.47;;;;;;;16.47;34.90;101970.06;5050313;28;20480;-72
2022/04/18 06:28:10;;;;;;;5.93;3.40;;;;;;;16.71;34.90;101977.56;5050873;28;20036;-72
2022/04/18 06:30:36;;;;;;;4.47;3.40;;;;;;;17.24;33.76;101971.34;5049475;28;20025;-73
2022/04/18 06:33:01;;;;;;;5.83;3.17;;;;;;;16.98;34.41;101974.50;5050614;28;20496;-72
2022/04/18 06:35:26;;;;;;;4.13;3.10;;;;;;;17.11;33.96;101966.31;5051642;28;20115;-72
2022/04/18 06:37:52;;;;;;;6.03;3.47;;;;;;;17.21;33.37;101967.00;5048986;28;20107;-72
2022/04/18 06:40:17;;;;;;;4.63;3.53;;;;;;;17.27;33.53;101976.59;5050363;28;20083;-72
2022/04/18 06:42:43;;;;;;;5.90;3.27;;;;;;;17.90;33.07;101971.72;5050174;28;20132;-72
2022/04/18 06:45:08;;;;;;;5.43;3.43;;;;;;;17.76;32.55;101978.22;5049884;28;20040;-72
2022/04/18 06:47:34;;;;;;;5.50;3.83;;;;;;;18.28;32.03;101983.22;5051203;28;20357;-72
2022/04/18 06:50:00;;;;;;;7.20;3.40;;;;;;;17.84;32.87;101987.75;5049950;28;20497;-72
2022/04/18 06:52:25;;;;;;;4.50;3.60;;;;;;;17.48;33.48;101987.63;5050796;28;20517;-72
2022/04/18 06:54:50;;;;;;;4.13;3.43;;;;;;;17.71;33.09;101988.00;5049664;28;20112;-72
2022/04/18 06:57:16;;;;;;;5.40;3.63;;;;;;;17.30;33.88;101992.38;5051070;28;20094;-72
2022/04/18 06:59:42;;;;;;;6.23;3.60;;;;;;;16.50;34.83;102002.56;5048894;28;20036;-72
2022/04/18 07:02:08;;;;;;;6.13;3.87;;;;;;;17.70;33.53;101994.19;5050103;28;20447;-72
2022/04/18 07:04:34;;;;;;;4.37;3.43;;;;;;;17.32;34.21;101994.97;5050877;28;20029;-72
2022/04/18 07:07:00;;;;;;;6.20;3.60;;;;;;;17.05;34.74;101992.84;5048893;28;20400;-72
2022/04/18 07:09:25;;;;;;;4.53;3.47;;;;;;;17.77;33.82;101998.44;5051321;28;20040;-72
2022/04/18 07:11:51;;;;;;;5.30;4.17;;;;;;;18.08;32.92;101995.16;5048868;28;20029;-73
2022/04/18 07:14:17;;;;;;;7.73;3.50;;;;;;;18.34;32.27;101988.38;5049844;28;20024;-72
2022/04/18 07:16:43;;;;;;;6.10;3.40;;;;;;;19.04;31.36;101990.16;5050959;28;20031;-72
2022/04/18 07:19:08;;;;;;;7.20;3.93;;;;;;;19.02;31.30;101991.09;5049052;28;20044;-72
2022/04/18 07:21:34;;;;;;;7.20;3.73;;;;;;;19.83;30.61;101991.41;5051059;28;20389;-73
2022/04/18 07:24:00;;;;;;;6.37;3.30;;;;;;;19.73;30.25;101984.63;5049338;28;20017;-72
2022/04/18 07:26:26;;;;;;;4.43;3.10;;;;;;;20.84;29.05;101978.44;5049225;28;20417;-72
2022/04/18 07:28:53;;;;;;;6.43;3.13;;;;;;;20.99;28.04;101976.16;5049540;28;20025;-72
2022/04/18 07:31:18;;;;;;;4.90;3.13;;;;;;;21.65;26.80;101972.84;5049941;28;20102;-72
2022/04/18 07:33:43;;;;;;;3.63;2.50;;;;;;;22.67;25.28;101971.44;5049640;28;20080;-72
2022/04/18 07:36:09;;;;;;;3.75;2.58;;;;;;;24.40;23.75;101971.47;5050971;28;20040;-72
2022/04/18 07:38:49;;;;;;;5.40;2.78;;;;;;;24.63;22.64;101969.44;5050646;28;20485;-73
2022/04/18 07:41:25;;;;;;;2.78;2.25;;;;;;;25.17;21.91;101967.47;5050311;28;20059;-73
2022/04/18 07:43:52;;;;;;;4.18;2.80;;;;;;;23.08;23.17;101979.41;5048958;28;20021;-72
2022/04/18 07:46:18;;;;;;;4.78;2.80;;;;;;;24.16;22.87;101969.06;5048795;28;20033;-73
2022/04/18 07:48:46;;;;;;;3.35;2.60;;;;;;;26.08;21.52;101972.31;5048058;28;20043;-72
2022/04/18 07:53:56;;;;;;;3.83;2.60;;;;;;;26.47;21.06;101980.78;5050827;28;20495;-73
2022/04/18 07:56:22;;;;;;;3.80;2.75;;;;;;;27.84;19.98;101985.75;5048991;28;20036;-72
2022/04/18 07:58:48;;;;;;;3.10;2.28;;;;;;;27.99;19.49;101969.59;5048898;28;20037;-73
2022/04/18 08:01:13;;;;;;;3.60;2.17;;;;;;;27.89;19.33;101982.75;5048724;28;20087;-73
2022/04/18 08:03:39;;;;;;;4.70;2.88;;;;;;;27.09;20.56;101978.84;5050276;28;20032;-72
2022/04/18 08:06:05;;;;;;;6.65;2.85;;;;;;;26.71;20.09;101973.16;5049447;28;20452;-73
2022/04/18 08:08:31;;;;;;;2.97;2.47;;;;;;;27.53;20.32;101970.75;5032111;28;20499;-73
2022/04/18 08:11:00;;;;;;;4.13;2.88;;;;;;;27.34;20.32;101981.78;5049036;28;20472;-73
2022/04/18 08:13:26;;;;;;;6.00;2.88;;;;;;;26.23;20.85;101973.25;5051007;28;20048;-73
2022/04/18 08:15:52;;;;;;;3.65;2.30;;;;;;;26.91;20.96;101986.19;5049367;28;20099;-73
2022/04/18 08:18:17;;;;;;;2.60;2.25;;;;;;;27.49;20.08;101986.22;5049387;28;20052;-73
2022/04/18 08:20:43;;;;;;;7.15;2.08;;;;;;;27.79;19.33;101979.81;5048692;28;20059;-72
2022/04/18 08:23:08;;;;;;;4.35;1.98;;;;;;;27.97;18.31;101984.94;5048477;28;20033;-73
2022/04/18 08:25:34;;;;;;;3.70;2.70;;;;;;;28.93;18.09;101969.53;5048967;28;20025;-73
2022/04/18 08:27:59;;;;;;;2.38;1.75;;;;;;;28.52;17.09;101978.59;5050380;28;20029;-73
2022/04/18 08:30:24;;;;;;;3.42;1.58;;;;;;;29.11;16.00;101979.94;5048374;28;20024;-73
2022/04/18 08:32:50;;;;;;;3.08;2.20;;;;;;;29.17;16.10;101973.25;5048831;28;20469;-73
2022/04/18 08:35:16;;;;;;;2.13;1.70;;;;;;;29.59;14.83;101966.63;5048817;28;20028;-72
2022/04/18 08:37:41;;;;;;;2.78;1.98;;;;;;;29.97;15.25;101974.72;5048064;28;20025;-72
2022/04/18 08:40:09;;;;;;;3.20;1.83;;;;;;;29.77;14.97;101967.13;5049150;28;20384;-72
2022/04/18 08:42:36;;;;;;;3.97;1.75;;;;;;;27.47;17.03;101977.38;5048573;28;20029;-73
2022/04/18 08:45:04;;;;;;;2.67;1.83;;;;;;;29.47;16.23;101970.22;5048638;28;20074;-73
2022/04/18 08:52:58;;;;;;;5.00;1.60;;;;;;;29.61;14.70;101975.44;5050203;28;20048;-72
2022/04/18 08:55:23;;;;;;;4.55;1.55;;;;;;;30.74;14.56;101960.78;5048917;28;20029;-72
2022/04/18 08:57:49;;;;;;;1.67;1.45;;;;;;;29.06;14.98;101974.88;5047669;28;20040;-72
2022/04/18 09:00:14;;;;;;;3.78;1.52;;;;;;;30.24;14.72;101967.25;5052318;28;20028;-72
2022/04/18 09:02:40;;;;;;;2.67;1.80;;;;;;;30.17;13.87;101957.91;5053154;28;20087;-72
2022/04/18 09:05:13;;;;;;;2.03;1.70;;;;;;;31.60;13.47;101969.25;5051830;28;20116;-73
2022/04/18 09:07:43;;;;;;;3.35;1.80;;;;;;;31.07;13.55;101964.50;5053419;28;20052;-73
2022/04/18 09:10:10;;;;;;;2.10;1.77;;;;;;;30.12;14.00;101971.72;5053395;28;20037;-73
2022/04/18 09:12:43;;;;;;;1.60;1.50;;;;;;;31.20;14.36;101964.38;5051339;28;20025;-73
2022/04/18 09:15:09;;;;;;;4.65;1.70;;;;;;;30.89;14.07;101967.66;5053583;28;20077;-73
2022/04/18 09:17:36;;;;;;;5.43;2.00;;;;;;;31.22;13.63;101968.66;5053118;28;20100;-73
2022/04/18 09:20:03;;;;;;;7.47;2.15;;;;;;;32.20;13.44;101968.84;5051237;28;20024;-73
2022/04/18 09:22:28;;;;;;;4.82;2.22;;;;;;;32.80;13.10;101958.31;5053224;28;20491;-73
2022/04/18 09:24:54;;;;;;;3.22;1.73;;;;;;;31.52;13.83;101969.88;5051484;28;20102;-73
2022/04/18 09:27:29;;;;;;;2.75;1.73;;;;;;;31.53;13.08;101966.19;5051479;28;20028;-73
2022/04/18 09:30:05;;;;;;;2.40;2.15;;;;;;;31.43;13.86;101959.81;5051598;28;20029;-73
2022/04/18 09:32:31;;;;;;;3.30;2.65;;;;;;;31.91;13.87;101964.88;5052119;28;20048;-73
2022/04/18 09:35:05;;;;;;;2.08;1.88;;;;;;;31.50;14.27;101952.91;5052877;28;20052;-72
2022/04/18 09:37:32;;;;;;;3.08;1.80;;;;;;;30.93;13.97;101947.53;5051628;28;20017;-73
2022/04/18 09:39:58;;;;;;;2.00;1.73;;;;;;;30.57;15.32;101949.47;5050867;28;20036;-73
2022/04/18 09:42:28;;;;;;;2.35;1.90;;;;;;;31.69;13.28;101948.75;5051657;28;20029;-72
2022/04/18 09:44:54;;;;;;;2.67;2.30;;;;;;;31.99;14.23;101949.88;5050840;28;20029;-72
2022/04/18 09:47:23;;;;;;;2.15;1.88;;;;;;;32.63;13.00;101947.09;5052244;28;20032;-73
2022/04/18 09:49:50;;;;;;;3.10;2.40;;;;;;;32.81;12.77;101946.50;5051169;28;20382;-73
2022/04/18 09:52:20;;;;;;;6.25;3.08;;;;;;;32.89;12.92;101944.00;5051413;28;20507;-73
2022/04/18 09:55:12;;;;;;;2.88;1.90;;;;;;;33.38;13.17;101937.91;5050389;28;20028;-73
2022/04/18 09:57:45;;;;;;;3.45;2.63;;;;;;;33.86;12.81;101953.41;5047735;28;20055;-73
2022/04/18 10:00:11;;;;;;;2.17;1.98;;;;;;;32.52;12.83;101947.19;5034842;28;20055;-73
2022/04/18 10:02:38;;;;;;;4.57;2.13;;;;;;;32.61;12.82;101946.34;5033278;28;20120;-73
2022/04/18 10:05:04;;;;;;;2.28;1.80;;;;;;;32.60;12.73;101936.53;5051253;28;20031;-73
2022/04/18 10:07:30;;;;;;;2.65;2.03;;;;;;;32.24;12.83;101941.41;5051020;28;20028;-73
2022/04/18 10:09:57;;;;;;;3.47;1.90;;;;;;;32.81;13.33;101941.94;5049630;28;20393;-73
2022/04/18 10:12:22;;;;;;;3.08;2.20;;;;;;;32.01;14.24;101937.94;5050852;28;20024;-73
2022/04/18 10:14:48;;;;;;;2.30;1.83;;;;;;;31.38;13.74;101941.28;5051109;28;20032;-73
2022/04/18 10:17:17;;;;;;;2.33;2.08;;;;;;;31.80;13.54;101935.19;5052714;28;20020;-73
2022/04/18 10:20:05;;;;;;;2.58;1.85;;;;;;;32.13;14.25;101930.63;5050312;28;20542;-73
2022/04/18 10:22:52;;;;;;;2.83;2.13;;;;;;;32.61;13.54;101938.22;5049895;28;20068;-73
2022/04/18 10:25:45;;;;;;;2.20;2.00;;;;;;;33.72;13.93;101929.41;5052152;28;20037;-73
2022/04/18 10:28:19;;;;;;;2.75;2.15;;;;;;;32.13;13.63;101923.38;5050780;28;20495;-73
2022/04/18 10:30:48;;;;;;;3.78;2.03;;;;;;;32.29;12.19;101928.34;5049446;28;20029;-73
2022/04/18 10:33:14;;;;;;;2.58;2.10;;;;;;;32.07;13.67;101925.75;5050714;28;20060;-73
2022/04/18 10:35:53;;;;;;;2.80;2.33;;;;;;;32.97;13.83;101925.22;5049834;28;20116;-73
2022/04/18 10:38:26;;;;;;;2.92;2.03;;;;;;;32.91;13.45;101925.75;5050787;28;20029;-73
2022/04/18 10:41:14;;;;;;;8.38;2.10;;;;;;;34.17;12.65;101923.44;5050173;28;20127;-73
2022/04/18 10:44:00;;;;;;;2.30;2.10;;;;;;;32.72;13.11;101922.97;5050483;28;20024;-73
2022/04/18 10:46:26;;;;;;;5.07;2.33;;;;;;;32.77;13.31;101923.41;5050499;28;20431;-73
2022/04/18 10:49:00;;;;;;;2.22;2.03;;;;;;;32.88;12.79;101920.63;5051028;28;20021;-73
2022/04/18 10:51:37;;;;;;;2.92;2.17;;;;;;;33.53;12.31;101920.25;5050742;28;20028;-73
2022/04/18 10:54:20;;;;;;;4.25;2.20;;;;;;;32.50;12.35;101911.25;5050364;28;20017;-73
2022/04/18 10:57:11;;;;;;;4.65;1.90;;;;;;;32.89;11.58;101910.63;5049848;28;20370;-73
2022/04/18 10:59:42;;;;;;;2.88;2.20;;;;;;;31.27;13.14;101917.88;5049406;28;20112;-74
2022/04/18 11:02:08;;;;;;;2.63;2.00;;;;;;;33.22;12.07;101912.19;5051362;28;20025;-73
2022/04/18 11:04:40;;;;;;;3.67;2.08;;;;;;;32.90;12.02;101907.78;5049042;28;20291;-73
2022/04/18 11:07:08;;;;;;;2.65;1.95;;;;;;;33.12;12.58;101914.00;5049950;28;20025;-73
2022/04/18 11:09:37;;;;;;;4.57;2.15;;;;;;;32.54;11.99;101910.00;5049695;28;20016;-73
2022/04/18 11:12:05;;;;;;;5.55;2.10;;;;;;;29.42;14.02;101921.22;5050277;28;20365;-73
2022/04/18 11:14:48;;;;;;;2.08;1.85;;;;;;;33.14;12.04;101903.91;5049578;28;20029;-73
2022/04/18 11:17:36;;;;;;;4.82;2.28;;;;;;;34.45;12.01;101899.13;5050942;28;20060;-73
2022/04/18 11:20:23;;;;;;;3.70;2.50;;;;;;;34.18;13.16;101908.00;5050435;28;20039;-73
2022/04/18 11:23:17;;;;;;;2.90;2.33;;;;;;;34.09;12.08;101898.91;5048363;28;20040;-73
2022/04/18 11:26:00;;;;;;;3.67;2.30;;;;;;;33.35;12.32;101905.69;5048374;28;20389;-73
2022/04/18 11:28:51;;;;;;;3.22;1.92;;;;;;;33.36;12.16;101896.53;5049498;28;20039;-73
2022/04/18 11:31:19;;;;;;;2.67;1.70;;;;;;;32.58;12.78;101903.34;5051006;28;20064;-73
2022/04/18 11:33:45;;;;;;;2.50;1.80;;;;;;;33.84;12.63;101901.19;5048407;28;20503;-73
2022/04/18 11:36:12;;;;;;;1.95;1.75;;;;;;;32.90;12.65;101896.94;5050881;28;20104;-73
2022/04/18 11:38:37;;;;;;;3.58;1.70;;;;;;;32.11;13.37;101900.19;5048997;28;20107;-72
2022/04/18 11:41:13;;;;;;;2.00;1.80;;;;;;;32.46;12.59;101899.00;5048845;28;20140;-73
2022/04/18 11:43:39;;;;;;;2.50;1.67;;;;;;;31.65;13.31;101893.25;5048582;28;20385;-72